Time;durP1;ratioP1;P1;durP2;ratioP2;P2;SDS_P1;SDS_P2;PMS_P1;PMS_P2;Temp;Humidity;BMP_temperature;BMP_pressure;BME280_temperature;BME280_humidity;BME280_pressure;Samples;Min_cycle;Max_cycle;Signal;HPM_P1;HPM_P2
2023/09/18 00:04:14;;;;;;;665.22;625.00;;;;;;;18.37;100.00;100536.44;10497338;28;20536;-70
2023/09/18 00:09:14;;;;;;;656.03;616.85;;;;;;;18.41;100.00;100534.84;10462008;28;20107;-70
2023/09/18 00:14:15;;;;;;;625.67;589.22;;;;;;;18.46;100.00;100528.59;10479566;28;20459;-70
2023/09/18 00:19:15;;;;;;;647.78;608.78;;;;;;;18.57;100.00;100520.22;10479502;28;20047;-70
2023/09/18 00:24:17;;;;;;;623.72;588.17;;;;;;;18.61;100.00;100525.16;10478690;28;20388;-70
2023/09/18 00:29:17;;;;;;;613.72;578.92;;;;;;;18.66;100.00;100504.09;10477616;28;20036;-70
2023/09/18 00:34:18;;;;;;;594.92;561.70;;;;;;;18.66;100.00;100482.13;10495113;28;20140;-70
2023/09/18 00:39:19;;;;;;;589.13;555.88;;;;;;;18.61;100.00;100468.41;10478554;28;20060;-70
2023/09/18 00:44:21;;;;;;;573.40;541.65;;;;;;;18.61;100.00;100454.69;10477938;28;20055;-70
2023/09/18 00:49:22;;;;;;;582.50;550.47;;;;;;;18.62;100.00;100445.38;10477948;28;20309;-70
2023/09/18 00:54:23;;;;;;;546.95;516.90;;;;;;;18.57;100.00;100406.97;10461269;28;20256;-70
2023/09/18 00:59:23;;;;;;;589.70;556.88;;;;;;;18.60;100.00;100378.97;10496126;28;20036;-70
2023/09/18 01:04:25;;;;;;;538.72;510.13;;;;;;;18.63;100.00;100402.31;10476787;28;20076;-70
2023/09/18 01:09:26;;;;;;;519.40;492.50;;;;;;;18.61;100.00;100386.13;10495912;28;20095;-70
2023/09/18 01:14:38;;;;;;;561.42;530.42;;;;;;;18.62;100.00;100401.50;10477393;28;20036;-70
2023/09/18 01:19:45;;;;;;;552.58;522.58;;;;;;;18.68;100.00;100402.34;10495701;28;20090;-70
2023/09/18 01:24:49;;;;;;;535.30;507.27;;;;;;;18.65;100.00;100395.47;10477471;28;20112;-70
2023/09/18 01:29:49;;;;;;;585.20;553.20;;;;;;;18.65;100.00;100400.97;10477070;28;20029;-70
2023/09/18 01:34:51;;;;;;;596.00;563.28;;;;;;;18.66;100.00;100407.28;10494783;28;20059;-70
2023/09/18 01:39:52;;;;;;;567.38;536.55;;;;;;;18.65;100.00;100390.00;10464220;28;20036;-70
2023/09/18 01:44:54;;;;;;;565.63;535.35;;;;;;;18.70;100.00;100397.44;10503094;28;20037;-70
2023/09/18 01:49:54;;;;;;;622.20;587.13;;;;;;;18.74;100.00;100401.34;10484598;28;20106;-70
2023/09/18 01:54:55;;;;;;;563.03;533.00;;;;;;;18.77;100.00;100404.38;10503007;28;20069;-70
2023/09/18 01:59:55;;;;;;;536.35;508.38;;;;;;;18.86;100.00;100401.13;10502395;28;20127;-70
2023/09/18 02:04:56;;;;;;;567.55;537.25;;;;;;;18.93;100.00;100409.97;10503622;28;20516;-70
2023/09/18 02:09:57;;;;;;;549.97;519.85;;;;;;;18.96;100.00;100417.66;10501954;28;20121;-70
2023/09/18 02:15:00;;;;;;;555.92;526.45;;;;;;;19.00;100.00;100402.31;10501144;28;20025;-70
2023/09/18 02:20:11;;;;;;;581.40;550.15;;;;;;;19.07;100.00;100400.16;10483382;28;20037;-70
2023/09/18 02:25:11;;;;;;;516.90;490.90;;;;;;;19.20;100.00;100393.38;10501139;28;20107;-70
2023/09/18 02:30:13;;;;;;;532.28;505.25;;;;;;;19.28;100.00;100355.25;10501046;28;20037;-70
2023/09/18 02:35:13;;;;;;;524.30;497.33;;;;;;;19.28;100.00;100363.50;10501572;28;20040;-70
2023/09/18 02:40:14;;;;;;;543.55;515.70;;;;;;;19.22;100.00;100345.34;10501778;28;20482;-70
2023/09/18 02:45:15;;;;;;;562.85;533.20;;;;;;;19.23;100.00;100330.50;10500391;28;20033;-70
2023/09/18 02:50:16;;;;;;;575.88;544.60;;;;;;;19.24;100.00;100312.13;10465246;28;20107;-70
2023/09/18 02:55:17;;;;;;;550.25;522.30;;;;;;;19.25;100.00;100286.34;10500607;28;20104;-70
2023/09/18 03:00:18;;;;;;;577.05;546.65;;;;;;;19.24;100.00;100270.94;10482651;28;20115;-70
2023/09/18 03:05:18;;;;;;;555.78;527.33;;;;;;;19.24;100.00;100266.31;10499801;28;20107;-70
2023/09/18 03:10:19;;;;;;;538.28;510.67;;;;;;;19.20;100.00;100270.66;10499678;28;20043;-70
2023/09/18 03:15:20;;;;;;;540.22;512.60;;;;;;;19.17;100.00;100256.66;10481997;28;20480;-70
2023/09/18 03:20:24;;;;;;;546.40;518.28;;;;;;;19.18;100.00;100261.06;10499264;28;20029;-70
2023/09/18 03:25:25;;;;;;;558.17;529.13;;;;;;;19.16;100.00;100304.41;10498667;28;20135;-70
2023/09/18 03:30:26;;;;;;;642.05;604.75;;;;;;;19.17;100.00;100284.09;10463638;28;20504;-70
2023/09/18 03:35:28;;;;;;;602.88;569.97;;;;;;;19.15;100.00;100292.63;10480412;28;20043;-70
2023/09/18 03:40:29;;;;;;;604.83;570.90;;;;;;;19.09;100.00;100318.41;10479991;28;20054;-70
2023/09/18 03:45:29;;;;;;;560.13;530.90;;;;;;;19.02;100.00;100290.38;10497582;28;20170;-70
2023/09/18 03:50:30;;;;;;;616.00;580.65;;;;;;;19.00;100.00;100301.63;10480532;28;20037;-70
2023/09/18 03:55:31;;;;;;;631.70;593.72;;;;;;;18.99;100.00;100285.44;10496632;28;20032;-70
2023/09/18 04:00:31;;;;;;;655.85;617.65;;;;;;;19.01;100.00;100296.94;10479342;28;20029;-70
2023/09/18 04:05:32;;;;;;;626.88;592.25;;;;;;;18.98;100.00;100289.25;10498022;28;20447;-70
2023/09/18 04:10:33;;;;;;;658.22;620.17;;;;;;;19.01;100.00;100275.00;10479675;28;20041;-70
2023/09/18 04:15:37;;;;;;;651.92;614.97;;;;;;;19.07;100.00;100249.22;10497967;28;20044;-71
2023/09/18 04:20:38;;;;;;;653.03;616.17;;;;;;;19.11;100.00;100238.53;10479894;28;20093;-70
2023/09/18 04:25:38;;;;;;;647.42;610.83;;;;;;;19.09;100.00;100219.59;10496895;28;20052;-70
2023/09/18 04:30:39;;;;;;;649.30;612.88;;;;;;;19.08;100.00;100206.13;10496728;28;20035;-70
2023/09/18 04:35:39;;;;;;;661.97;623.85;;;;;;;19.07;100.00;100224.53;10494817;28;20039;-70
2023/09/18 04:40:40;;;;;;;654.50;617.55;;;;;;;19.08;100.00;100228.94;10477822;28;20032;-71
2023/09/18 04:45:42;;;;;;;637.20;601.50;;;;;;;19.07;100.00;100249.22;10494787;28;20095;-71
2023/09/18 04:50:45;;;;;;;612.75;578.88;;;;;;;19.05;100.00;100230.28;10478235;28;20071;-71
2023/09/18 04:55:49;;;;;;;643.00;606.65;;;;;;;19.11;100.00;100238.53;10477886;28;20043;-71
2023/09/18 05:00:56;;;;;;;660.55;623.00;;;;;;;19.19;100.00;100211.38;10478101;28;20028;-70
2023/09/18 05:05:57;;;;;;;656.10;618.65;;;;;;;19.17;100.00;100219.06;10495473;28;20135;-70
2023/09/18 05:10:57;;;;;;;662.92;625.00;;;;;;;19.16;100.00;100214.66;10494897;28;20029;-70
2023/09/18 05:15:58;;;;;;;627.35;592.58;;;;;;;19.16;100.00;100211.09;10495117;28;20081;-70
2023/09/18 05:20:59;;;;;;;594.65;562.58;;;;;;;19.20;100.00;100203.97;10477392;28;20033;-70
2023/09/18 05:26:00;;;;;;;618.78;585.22;;;;;;;19.16;100.00;100187.22;10478533;28;20441;-70
2023/09/18 05:31:00;;;;;;;590.75;559.50;;;;;;;19.15;100.00;100185.59;10495183;28;20064;-70
2023/09/18 05:36:01;;;;;;;554.65;525.80;;;;;;;19.11;100.00;100178.97;10495793;28;20123;-70
2023/09/18 05:41:01;;;;;;;582.10;551.50;;;;;;;19.10;100.00;100177.31;10496075;28;20037;-70
2023/09/18 05:46:02;;;;;;;596.20;563.63;;;;;;;19.10;100.00;100185.56;10495321;28;20040;-70
2023/09/18 05:51:03;;;;;;;582.08;551.17;;;;;;;19.10;100.00;100192.97;10495293;28;20035;-70
2023/09/18 05:56:04;;;;;;;601.33;569.35;;;;;;;19.08;100.00;100173.19;10495082;28;20372;-70
2023/09/18 06:01:05;;;;;;;588.85;557.30;;;;;;;19.07;100.00;100179.78;10494978;28;20039;-70
2023/09/18 06:06:05;;;;;;;576.47;546.03;;;;;;;19.00;100.00;100199.25;10477576;28;20463;-70
2023/09/18 06:11:06;;;;;;;611.50;578.28;;;;;;;19.01;100.00;100189.94;10493600;28;20487;-70
2023/09/18 06:16:08;;;;;;;600.00;567.28;;;;;;;18.94;100.00;100192.94;10493446;28;20502;-70
2023/09/18 06:21:08;;;;;;;585.78;554.60;;;;;;;18.92;100.00;100205.25;10494931;28;20079;-70
2023/09/18 06:26:08;;;;;;;566.83;537.38;;;;;;;18.87;100.00;100206.09;10480425;28;20037;-70
2023/09/18 06:31:10;;;;;;;635.08;599.75;;;;;;;18.93;100.00;100188.56;10466930;28;20112;-70
2023/09/18 06:36:11;;;;;;;691.08;649.83;;;;;;;18.86;100.00;100176.16;10483774;28;20092;-70
2023/09/18 06:41:12;;;;;;;615.10;581.33;;;;;;;18.81;100.00;100169.56;10483223;28;20437;-70
2023/09/18 06:46:12;;;;;;;639.47;604.10;;;;;;;18.86;100.00;100171.53;10500981;28;20111;-70
2023/09/18 06:51:13;;;;;;;609.17;576.50;;;;;;;18.95;100.00;100180.03;10483242;28;20039;-70
2023/09/18 06:56:13;;;;;;;579.00;548.92;;;;;;;18.93;100.00;100194.03;10482589;28;20446;-70
2023/09/18 07:01:15;;;;;;;591.72;560.50;;;;;;;18.84;100.00;100201.13;10501348;28;20123;-70
2023/09/18 07:06:15;;;;;;;506.50;481.10;;;;;;;18.78;100.00;100202.22;10482675;28;20040;-70
2023/09/18 07:11:17;;;;;;;666.75;626.22;;;;;;;18.65;100.00;100198.03;10499822;28;20039;-70
2023/09/18 07:16:17;;;;;;;608.28;575.25;;;;;;;18.84;100.00;100208.53;10481734;28;20380;-70
2023/09/18 07:21:17;;;;;;;597.55;565.22;;;;;;;20.08;100.00;100198.22;10482199;28;20052;-70
2023/09/18 07:26:18;;;;;;;524.08;498.25;;;;;;;20.21;100.00;100202.34;10480937;28;20344;-70
2023/09/18 07:31:18;;;;;;;641.08;605.13;;;;;;;20.23;100.00;100208.38;10498841;28;20032;-70
2023/09/18 07:36:19;;;;;;;564.63;535.42;;;;;;;20.88;100.00;100228.53;10497965;28;20380;-70
2023/09/18 07:41:22;;;;;;;640.40;604.58;;;;;;;21.50;100.00;100228.19;10480032;28;20369;-70
2023/09/18 07:46:22;;;;;;;627.53;593.53;;;;;;;22.28;100.00;100227.25;10480871;28;20397;-70
2023/09/18 07:51:23;;;;;;;560.25;529.75;;;;;;;22.79;100.00;100232.19;10498122;28;20032;-70
2023/09/18 07:56:25;;;;;;;454.73;434.30;;;;;;;23.55;100.00;100235.03;10498918;28;20108;-70
2023/09/18 08:01:25;;;;;;;455.95;435.27;;;;;;;23.94;100.00;100234.66;10499178;28;20131;-70
2023/09/18 08:06:26;;;;;;;418.80;399.75;;;;;;;23.83;100.00;100255.31;10480345;28;20491;-71
2023/09/18 08:11:26;;;;;;;420.55;401.92;;;;;;;23.93;100.00;100259.84;10497242;28;20491;-71
2023/09/18 08:16:27;;;;;;;557.13;526.35;;;;;;;24.01;100.00;100254.44;10478579;28;20043;-71
2023/09/18 08:21:31;;;;;;;480.10;457.85;;;;;;;24.63;100.00;100256.09;10463901;28;20083;-71
2023/09/18 08:26:32;;;;;;;452.85;432.08;;;;;;;24.78;100.00;100264.13;10479328;28;20033;-72
2023/09/18 08:31:33;;;;;;;462.83;441.83;;;;;;;23.34;100.00;100267.66;10477892;28;20556;-72
2023/09/18 08:36:33;;;;;;;584.58;549.40;;;;;;;22.02;100.00;100282.63;10496915;28;20049;-72
2023/09/18 08:41:34;;;;;;;477.38;455.15;;;;;;;21.50;100.00;100283.28;10478474;28;20119;-72
2023/09/18 08:46:35;;;;;;;415.25;396.05;;;;;;;21.09;100.00;100283.47;10496032;28;20032;-72
2023/09/18 08:51:35;;;;;;;50.92;48.78;;;;;;;20.87;100.00;100276.44;10460927;28;20419;-71
2023/09/18 08:56:36;;;;;;;49.92;47.17;;;;;;;21.10;100.00;100279.63;10461162;28;20461;-71
2023/09/18 09:01:36;;;;;;;77.28;74.00;;;;;;;21.08;100.00;100299.16;10477171;28;20040;-71
2023/09/18 09:06:37;;;;;;;105.72;100.22;;;;;;;21.20;100.00;100298.84;10495675;28;20178;-71
2023/09/18 09:11:37;;;;;;;46.30;44.25;;;;;;;21.50;100.00;100289.59;10494886;28;20178;-71
2023/09/18 09:16:41;;;;;;;100.50;96.00;;;;;;;22.21;100.00;100299.31;10477339;28;20082;-71
2023/09/18 09:21:43;;;;;;;354.08;331.95;;;;;;;22.72;100.00;100293.28;10477925;28;20032;-71
2023/09/18 09:26:44;;;;;;;385.63;360.02;;;;;;;23.48;100.00;100298.94;10461124;28;20127;-71
2023/09/18 09:31:45;;;;;;;84.80;81.43;;;;;;;22.70;100.00;100292.72;10460968;28;20038;-71
2023/09/18 09:36:55;;;;;;;228.82;219.25;;;;;;;23.82;100.00;100276.63;10494546;28;20036;-71
2023/09/18 09:42:01;;;;;;;184.60;176.65;;;;;;;24.43;100.00;100290.53;10496039;28;20032;-70
2023/09/18 09:47:03;;;;;;;;;;;;;;;24.23;100.00;100300.81;10495910;28;20028;-71
2023/09/18 09:52:05;;;;;;;200.63;192.73;;;;;;;24.59;100.00;100303.78;10476688;28;19913;-70
2023/09/18 09:57:06;;;;;;;129.60;124.43;;;;;;;23.98;100.00;100304.84;10460682;28;20032;-71
2023/09/18 10:02:09;;;;;;;422.20;398.42;;;;;;;23.28;100.00;100311.09;10482336;28;20044;-71
2023/09/18 10:07:09;;;;;;;199.10;190.35;;;;;;;23.51;100.00;100314.09;10501820;28;20083;-70
2023/09/18 10:12:11;;;;;;;290.02;278.00;;;;;;;23.16;100.00;100300.47;10467111;28;20448;-71
2023/09/18 10:17:12;;;;;;;247.98;237.45;;;;;;;23.38;100.00;100305.44;10466898;28;20124;-70
2023/09/18 10:22:32;;;;;;;223.43;214.40;;;;;;;24.28;100.00;100310.97;10482904;28;20044;-70
2023/09/18 10:27:33;;;;;;;271.38;260.27;;;;;;;24.86;100.00;100296.63;10501776;28;20119;-71
2023/09/18 10:32:34;;;;;;;303.65;289.23;;;;;;;24.83;100.00;100289.75;10483090;28;20103;-70
2023/09/18 10:37:34;;;;;;;314.10;300.77;;;;;;;25.68;100.00;100292.91;10466379;28;20036;-71
2023/09/18 10:42:37;;;;;;;311.33;298.55;;;;;;;25.33;100.00;100296.50;10482939;28;20069;-70
2023/09/18 10:47:39;;;;;;;361.55;345.95;;;;;;;25.91;100.00;100306.81;10482444;28;20035;-70
2023/09/18 10:52:43;;;;;;;431.63;410.33;;;;;;;26.11;100.00;100297.19;10483429;28;20120;-71
2023/09/18 10:57:55;;;;;;;388.67;372.38;;;;;;;26.11;100.00;100300.78;10465689;28;20043;-70
2023/09/18 11:03:18;;;;;;;552.10;525.00;;;;;;;24.78;100.00;100305.66;10500136;28;20040;-70
2023/09/18 11:08:33;;;;;;;503.88;480.23;;;;;;;25.44;100.00;100306.25;10458061;28;20469;-70
2023/09/18 11:13:35;;;;;;;571.75;541.58;;;;;;;25.34;100.00;100292.63;10456108;28;20064;-71
2023/09/18 11:18:35;;;;;;;508.05;483.77;;;;;;;25.18;100.00;100289.38;10440633;28;20329;-70
2023/09/18 11:23:37;;;;;;;530.20;504.35;;;;;;;24.78;100.00;100289.84;10440583;28;20040;-70
2023/09/18 11:28:38;;;;;;;524.25;499.20;;;;;;;25.28;100.00;100295.50;10456560;28;20032;-70
2023/09/18 11:33:40;;;;;;;584.80;553.17;;;;;;;24.48;100.00;100290.47;10439782;28;20461;-70
2023/09/18 11:38:54;;;;;;;756.92;684.67;;;;;;;23.73;100.00;100283.13;10455375;28;20485;-70
2023/09/18 11:44:16;;;;;;;523.22;497.88;;;;;;;24.74;100.00;100286.06;10473628;28;20090;-70
2023/09/18 11:49:21;;;;;;;517.13;491.23;;;;;;;25.10;100.00;100276.19;10453023;28;20040;-70
2023/09/18 11:54:22;;;;;;;573.35;542.97;;;;;;;25.52;100.00;100275.00;10455892;28;20025;-70
2023/09/18 11:59:39;;;;;;;564.75;536.63;;;;;;;25.36;100.00;100280.06;10455443;28;20388;-70
2023/09/18 12:04:42;;;;;;;583.13;553.63;;;;;;;24.21;100.00;100269.88;10457259;28;20040;-70
2023/09/18 12:09:42;;;;;;;545.95;518.75;;;;;;;24.41;100.00;100265.06;10497385;28;20041;-70
2023/09/18 12:14:44;;;;;;;545.55;518.42;;;;;;;24.48;100.00;100263.59;10479519;28;20058;-70
2023/09/18 12:19:54;;;;;;;541.17;514.72;;;;;;;24.25;100.00;100247.94;10479137;28;20153;-70
2023/09/18 12:25:11;;;;;;;541.08;514.70;;;;;;;24.35;100.00;100243.06;10496499;28;20497;-70
2023/09/18 12:30:14;;;;;;;540.25;511.40;;;;;;;24.76;100.00;100233.97;10497333;28;20025;-70
2023/09/18 12:35:15;;;;;;;683.45;639.25;;;;;;;25.35;100.00;100233.28;10497074;28;20103;-70
2023/09/18 12:40:33;;;;;;;629.22;595.60;;;;;;;25.77;100.00;100234.75;10496426;28;20174;-70
2023/09/18 12:45:34;;;;;;;650.95;615.40;;;;;;;25.98;100.00;100224.00;10479025;28;20119;-70
2023/09/18 12:50:35;;;;;;;661.83;625.28;;;;;;;25.95;100.00;100219.88;10478235;28;20028;-70
2023/09/18 12:55:35;;;;;;;694.58;654.28;;;;;;;25.64;100.00;100205.94;10479246;28;20041;-70
2023/09/18 13:00:36;;;;;;;853.33;778.17;;;;;;;24.95;100.00;100188.69;10477712;28;20488;-70
2023/09/18 13:05:37;;;;;;;709.00;668.33;;;;;;;24.77;100.00;100180.22;10461778;28;20080;-70
2023/09/18 13:10:49;;;;;;;695.70;655.78;;;;;;;24.38;100.00;100183.50;10477598;28;20182;-70
2023/09/18 13:15:50;;;;;;;770.25;722.05;;;;;;;24.68;100.00;100173.78;10477464;28;20031;-70
2023/09/18 13:20:52;;;;;;;667.58;630.90;;;;;;;24.25;100.00;100167.69;10495170;28;20415;-70
2023/09/18 13:25:59;;;;;;;622.85;589.92;;;;;;;23.82;100.00;100135.59;10477341;28;20643;-70
2023/09/18 13:31:04;;;;;;;721.72;665.03;;;;;;;22.94;100.00;100135.38;10461520;28;20416;-70
2023/09/18 13:36:06;;;;;;;526.13;500.42;;;;;;;22.64;100.00;100133.84;10482278;28;20040;-70
2023/09/18 13:41:07;;;;;;;706.92;656.90;;;;;;;22.36;100.00;100110.75;10502676;28;20059;-70
2023/09/18 13:46:13;;;;;;;463.52;442.45;;;;;;;22.19;100.00;100125.03;10485748;28;20063;-70
2023/09/18 13:51:16;;;;;;;369.23;353.70;;;;;;;22.02;100.00;100127.41;10501759;28;20127;-70
2023/09/18 13:56:17;;;;;;;326.20;312.63;;;;;;;21.52;100.00;100122.09;10501914;28;20056;-70
2023/09/18 14:01:17;;;;;;;358.05;343.10;;;;;;;;;;10484186;28;20033;-70
2023/09/18 14:06:18;;;;;;;190.98;183.32;;;;;;;20.66;100.00;100142.78;10502014;28;20048;-70
2023/09/18 14:11:19;;;;;;;272.05;259.95;;;;;;;19.85;100.00;100171.34;10483732;28;20034;-69
2023/09/18 14:16:22;;;;;;;261.02;249.77;;;;;;;19.08;100.00;100206.13;10502395;28;20078;-70
2023/09/18 14:21:23;;;;;;;49.05;46.90;;;;;;;18.41;100.00;100191.31;10501603;28;20123;-69
2023/09/18 14:26:24;;;;;;;92.20;88.32;;;;;;;18.19;100.00;100191.47;10483276;28;20079;-69
2023/09/18 14:31:25;;;;;;;50.70;48.50;;;;;;;18.09;100.00;100189.50;10501852;28;20038;-69
2023/09/18 14:36:26;;;;;;;296.73;278.58;;;;;;;17.95;100.00;100169.97;10482762;28;20036;-69
2023/09/18 14:41:27;;;;;;;39.25;36.88;;;;;;;17.95;100.00;100164.50;10501122;28;20032;-69
2023/09/18 14:46:27;;;;;;;39.17;37.13;;;;;;;17.94;100.00;100145.59;10482868;28;20107;-69
2023/09/18 14:51:29;;;;;;;274.63;259.17;;;;;;;18.06;100.00;100141.56;10482592;28;20105;-69
2023/09/18 14:56:30;;;;;;;302.63;284.40;;;;;;;18.11;100.00;100143.50;10500894;28;20044;-69
2023/09/18 15:01:31;;;;;;;145.80;139.30;;;;;;;18.29;100.00;100145.78;10500352;28;20028;-69
2023/09/18 15:06:32;;;;;;;354.70;331.67;;;;;;;18.74;100.00;100141.59;10481138;28;20060;-69
2023/09/18 15:11:34;;;;;;;58.85;56.05;;;;;;;18.69;100.00;100138.78;10481530;28;20037;-69
2023/09/18 15:16:35;;;;;;;340.02;321.33;;;;;;;18.83;100.00;100108.16;10464315;28;20403;-70
2023/09/18 15:21:36;;;;;;;345.92;324.10;;;;;;;18.91;100.00;100110.34;10499134;28;20081;-69
2023/09/18 15:26:37;;;;;;;348.95;323.85;;;;;;;18.81;100.00;100103.75;10481146;28;20036;-69
2023/09/18 15:31:38;;;;;;;106.47;99.82;;;;;;;18.92;100.00;100095.53;10464244;28;20388;-69
2023/09/18 15:36:39;;;;;;;106.15;98.75;;;;;;;18.92;100.00;100092.78;10481200;28;20051;-69
2023/09/18 15:41:39;;;;;;;470.90;433.48;;;;;;;18.95;100.00;100071.13;10479647;28;20396;-69
2023/09/18 15:46:40;;;;;;;79.82;76.60;;;;;;;18.91;100.00;100080.16;10479386;28;20056;-69
2023/09/18 15:51:41;;;;;;;197.73;181.20;;;;;;;19.00;100.00;100081.28;10463534;28;20032;-69
2023/09/18 15:56:43;;;;;;;170.38;162.02;;;;;;;18.86;100.00;100083.75;10496986;28;20032;-69
2023/09/18 16:01:44;;;;;;;240.05;225.82;;;;;;;18.90;100.00;100078.53;10480109;28;20036;-69
2023/09/18 16:06:46;;;;;;;146.00;139.57;;;;;;;18.74;100.00;100094.16;10480006;28;20089;-69
2023/09/18 16:11:47;;;;;;;418.00;389.80;;;;;;;18.69;100.00;100094.91;10479809;28;20162;-69
2023/09/18 16:16:48;;;;;;;346.52;319.45;;;;;;;18.59;100.00;100097.63;10479045;28;20472;-69
2023/09/18 16:21:48;;;;;;;324.15;298.65;;;;;;;18.51;100.00;100107.22;10496879;28;20051;-69
2023/09/18 16:26:49;;;;;;;213.05;200.23;;;;;;;18.43;100.00;100087.72;10461469;28;20037;-69
2023/09/18 16:31:49;;;;;;;142.55;134.15;;;;;;;18.49;100.00;100105.84;10496419;28;20427;-69
2023/09/18 16:36:50;;;;;;;165.73;154.70;;;;;;;18.46;100.00;100117.34;10496776;28;20054;-69
2023/09/18 16:41:52;;;;;;;369.83;300.92;;;;;;;18.54;100.00;100125.88;10478722;28;20137;-69
2023/09/18 16:46:52;;;;;;;314.88;292.00;;;;;;;18.49;100.00;100123.09;10478038;28;20459;-69
2023/09/18 16:51:53;;;;;;;310.08;282.05;;;;;;;18.48;100.00;100137.91;10496520;28;20082;-69
2023/09/18 16:56:53;;;;;;;276.17;257.42;;;;;;;18.42;100.00;100138.16;10478724;28;20427;-69
2023/09/18 17:01:54;;;;;;;163.18;153.80;;;;;;;18.41;100.00;100144.72;10496577;28;20033;-69
2023/09/18 17:06:54;;;;;;;370.90;346.65;;;;;;;18.44;100.00;100153.25;10477764;28;20049;-69
2023/09/18 17:11:54;;;;;;;348.08;318.73;;;;;;;18.47;100.00;100162.84;10493845;28;20454;-69
2023/09/18 17:16:55;;;;;;;607.25;540.20;;;;;;;18.50;100.00;100163.13;10495516;28;20064;-69
2023/09/18 17:22:00;;;;;;;585.85;530.85;;;;;;;18.49;100.00;100139.56;10461513;28;20166;-70
2023/09/18 17:27:00;;;;;;;417.77;382.40;;;;;;;18.52;100.00;100171.09;10495757;28;20040;-70
2023/09/18 17:32:00;;;;;;;147.75;139.73;;;;;;;18.50;100.00;100176.84;10477410;28;20131;-70
2023/09/18 17:37:01;;;;;;;258.40;243.55;;;;;;;18.46;100.00;100194.09;10476158;28;20041;-70
2023/09/18 17:42:01;;;;;;;1982.00;952.97;;;;;;;18.50;100.00;100178.75;10475748;28;20063;-70
2023/09/18 17:47:02;;;;;;;141.05;133.57;;;;;;;18.47;100.00;100196.56;10476374;28;20369;-70
2023/09/18 17:52:11;;;;;;;204.75;192.30;;;;;;;18.47;100.00;100182.03;10476207;28;20075;-70
2023/09/18 17:57:11;;;;;;;202.73;189.65;;;;;;;18.48;100.00;100211.13;10460898;28;20066;-70
2023/09/18 18:02:11;;;;;;;308.00;283.65;;;;;;;18.52;100.00;100184.81;10459284;28;20028;-70
2023/09/18 18:07:12;;;;;;;215.38;200.20;;;;;;;18.49;100.00;100213.56;10476068;28;20153;-70
2023/09/18 18:12:12;;;;;;;729.63;440.38;;;;;;;18.42;100.00;100214.94;10494194;28;20456;-70
2023/09/18 18:17:13;;;;;;;431.17;388.88;;;;;;;18.38;100.00;100216.53;10494705;28;20479;-70
2023/09/18 18:22:14;;;;;;;111.38;105.35;;;;;;;18.36;100.00;100231.34;10499085;28;20087;-70
2023/09/18 18:27:14;;;;;;;107.75;101.30;;;;;;;18.41;100.00;100241.50;10483367;28;20036;-70
2023/09/18 18:32:14;;;;;;;253.32;238.20;;;;;;;17.84;100.00;100255.91;10466242;28;20039;-69
2023/09/18 18:37:15;;;;;;;315.50;297.52;;;;;;;16.86;100.00;100265.00;10482925;28;20067;-70
2023/09/18 18:42:15;;;;;;;341.67;321.85;;;;;;;16.24;100.00;100246.94;10500905;28;20112;-70
2023/09/18 18:47:16;;;;;;;198.93;189.23;;;;;;;16.22;100.00;100261.91;10500580;28;20408;-70
2023/09/18 18:52:17;;;;;;;335.02;308.65;;;;;;;16.28;100.00;100259.00;10466404;28;20043;-70
2023/09/18 18:57:17;;;;;;;216.60;205.63;;;;;;;16.36;100.00;100263.19;10482207;28;20029;-71
2023/09/18 19:02:18;;;;;;;228.68;217.65;;;;;;;16.56;100.00;100306.41;10500365;28;20055;-70
2023/09/18 19:07:21;;;;;;;456.25;431.15;;;;;;;16.70;100.00;100298.66;10481514;28;20082;-70
2023/09/18 19:12:22;;;;;;;360.40;344.52;;;;;;;16.44;100.00;100320.16;10499592;28;20036;-71
2023/09/18 19:17:23;;;;;;;454.65;432.90;;;;;;;16.36;100.00;100303.38;10499561;28;20056;-70
2023/09/18 19:22:23;;;;;;;421.92;402.30;;;;;;;16.35;100.00;100313.47;10499045;28;20101;-70
2023/09/18 19:27:24;;;;;;;497.15;471.55;;;;;;;16.12;100.00;100327.31;10481024;28;20068;-69
2023/09/18 19:32:27;;;;;;;507.17;481.25;;;;;;;15.80;100.00;100330.59;10496861;28;20053;-70
2023/09/18 19:37:27;;;;;;;462.60;441.45;;;;;;;15.65;100.00;100347.50;10479907;28;20173;-68
2023/09/18 19:42:28;;;;;;;507.15;482.08;;;;;;;15.71;100.00;100357.47;10498664;28;20123;-68
2023/09/18 19:47:28;;;;;;;457.75;434.67;;;;;;;15.70;100.00;100365.91;10497157;28;20041;-68
2023/09/18 19:52:31;;;;;;;471.13;447.98;;;;;;;15.73;100.00;100379.03;10497961;28;20094;-68
2023/09/18 19:57:32;;;;;;;429.92;409.67;;;;;;;15.70;100.00;100366.72;10497399;28;20064;-68
2023/09/18 20:02:36;;;;;;;469.55;446.38;;;;;;;15.68;100.00;100378.97;10478725;28;20064;-68
2023/09/18 20:07:37;;;;;;;430.65;411.65;;;;;;;15.71;100.00;100387.50;10479224;28;20084;-68
2023/09/18 20:12:37;;;;;;;379.33;362.58;;;;;;;15.67;100.00;100382.78;10495394;28;20045;-68
2023/09/18 20:17:40;;;;;;;377.27;361.17;;;;;;;15.64;100.00;100385.97;10463072;28;20383;-69
2023/09/18 20:22:40;;;;;;;343.42;328.23;;;;;;;15.69;100.00;100386.06;10478339;28;20115;-69
2023/09/18 20:27:41;;;;;;;413.65;394.27;;;;;;;15.67;100.00;100401.88;10479405;28;20407;-69
2023/09/18 20:32:45;;;;;;;406.40;388.83;;;;;;;15.73;100.00;100406.34;10496103;28;20472;-68
2023/09/18 20:37:46;;;;;;;471.85;440.98;;;;;;;15.71;100.00;100416.69;10496038;28;20395;-68
2023/09/18 20:42:46;;;;;;;296.75;283.75;;;;;;;15.63;100.00;100423.31;10477479;28;20119;-69
2023/09/18 20:47:47;;;;;;;334.48;319.55;;;;;;;15.51;100.00;100434.28;10496632;28;20033;-69
2023/09/18 20:52:47;;;;;;;336.13;321.10;;;;;;;15.39;100.00;100440.84;10461158;28;20369;-68
2023/09/18 20:57:48;;;;;;;352.65;337.70;;;;;;;15.45;100.00;100448.88;10495712;28;20036;-68
2023/09/18 21:02:49;;;;;;;284.92;272.20;;;;;;;15.46;100.00;100461.47;10495648;28;20036;-68
2023/09/18 21:07:49;;;;;;;348.08;332.90;;;;;;;15.36;100.00;100455.78;10495974;28;20476;-69
2023/09/18 21:12:51;;;;;;;446.55;418.77;;;;;;;15.16;100.00;100480.72;10478287;28;20072;-68
2023/09/18 21:17:52;;;;;;;312.10;297.90;;;;;;;15.07;100.00;100488.44;10478087;28;20040;-68
2023/09/18 21:22:59;;;;;;;325.33;311.15;;;;;;;14.85;100.00;100485.44;10495707;28;20039;-69
2023/09/18 21:28:01;;;;;;;258.60;247.07;;;;;;;14.77;100.00;100498.59;10479872;28;20410;-69
2023/09/18 21:33:03;;;;;;;286.30;274.35;;;;;;;14.68;100.00;100511.75;10494665;28;20028;-68
2023/09/18 21:38:05;;;;;;;278.58;265.90;;;;;;;14.56;100.00;100522.63;10461522;28;20036;-69
2023/09/18 21:43:05;;;;;;;316.70;303.75;;;;;;;14.69;100.00;100529.75;10460677;28;20408;-68
2023/09/18 21:48:06;;;;;;;309.45;295.63;;;;;;;14.62;100.00;100527.13;10477319;28;20032;-70
2023/09/18 21:53:08;;;;;;;276.15;264.73;;;;;;;14.54;100.00;100537.53;10477284;28;20051;-69
2023/09/18 21:58:09;;;;;;;258.27;246.90;;;;;;;14.49;100.00;100540.94;10483551;28;20029;-69